createdAt,value
2019-05-05T10:16:47.700Z,18.70
2019-05-05T10:19:33.570Z,18.80
2019-05-05T10:22:19.856Z,19.70
2019-05-05T10:25:24.437Z,20.10
2019-05-05T10:33:48.723Z,19.50
2019-05-05T10:36:34.961Z,19.60
2019-05-05T10:42:16.099Z,19.00
2019-05-05T10:45:04.193Z,19.50
2019-05-05T11:38:10.592Z,21.10
2019-05-05T12:03:05.637Z,20.20
2019-05-05T12:08:42.951Z,19.70
2019-05-05T12:11:27.947Z,19.60
2019-05-05T13:47:54.971Z,18.50
2019-05-05T13:50:44.098Z,18.40
2019-05-05T13:53:30.187Z,17.90
2019-05-05T13:56:16.487Z,17.40
2019-05-05T13:59:02.391Z,17.10
2019-05-05T14:01:48.713Z,16.70
2019-05-05T14:04:35.871Z,16.30
2019-05-05T14:07:23.762Z,16.90
2019-05-05T14:10:09.712Z,17.50
2019-05-05T14:12:55.847Z,17.90
2019-05-05T14:15:43.957Z,18.70
2019-05-05T14:18:29.811Z,17.70
2019-05-05T14:21:15.978Z,16.80
2019-05-05T14:24:19.810Z,16.40
2019-05-05T14:27:06.335Z,16.20
2019-05-05T14:30:10.860Z,16.00
2019-05-05T14:32:57.884Z,16.00
2019-05-05T14:35:53.986Z,16.00
2019-05-05T14:38:44.447Z,16.30
2019-05-05T14:41:31.242Z,16.70
2019-05-05T14:44:17.361Z,16.80
2019-05-05T14:47:03.619Z,17.10
2019-05-05T14:49:50.032Z,17.40
2019-05-05T14:52:36.377Z,17.30
2019-05-05T14:55:22.659Z,16.90
2019-05-05T14:58:08.947Z,16.40
2019-05-05T15:00:54.791Z,16.10
2019-05-05T15:03:41.484Z,16.20
2019-05-05T15:06:47.555Z,16.70
2019-05-05T15:10:04.208Z,17.10
2019-05-05T15:12:56.380Z,17.90
2019-05-05T15:15:42.627Z,18.20
2019-05-05T15:18:29.076Z,18.70
2019-05-05T15:21:15.500Z,18.80
2019-05-05T15:24:01.956Z,18.60
2019-05-05T15:26:52.103Z,18.10
2019-05-05T15:29:36.396Z,17.80
2019-05-05T15:32:23.994Z,17.80
2019-05-05T15:35:10.520Z,16.90
2019-05-05T15:37:56.977Z,16.10
2019-05-05T15:40:44.979Z,15.70
2019-05-05T15:43:33.395Z,17.00
2019-05-05T15:46:19.771Z,16.40
2019-05-05T15:49:06.096Z,15.70
2019-05-05T15:51:53.983Z,15.30
2019-05-05T15:54:40.375Z,14.90
2019-05-05T15:57:26.696Z,15.00
2019-05-05T16:00:14.096Z,15.20
2019-05-05T16:03:00.556Z,15.70
2019-05-05T16:05:46.768Z,15.90
2019-05-05T16:08:33.943Z,16.00
2019-05-05T16:11:20.579Z,16.10
2019-05-05T16:14:06.902Z,16.20
2019-05-05T16:17:06.546Z,16.20
2019-05-05T16:19:59.087Z,15.80
2019-05-05T16:22:56.687Z,15.50
2019-05-05T16:25:46.323Z,15.10
2019-05-05T16:28:30.772Z,14.70
2019-05-05T16:31:17.047Z,14.40
2019-05-05T16:34:03.797Z,14.10
2019-05-05T16:36:50.390Z,13.90
2019-05-05T16:39:36.612Z,13.50
2019-05-05T16:42:23.970Z,13.30
2019-05-05T16:45:11.000Z,13.10
2019-05-05T16:47:57.275Z,12.80
2019-05-05T16:50:44.131Z,12.80
2019-05-05T16:53:37.363Z,12.90
2019-05-05T16:56:24.249Z,12.90
2019-05-05T16:59:10.512Z,13.40
2019-05-05T17:01:56.718Z,13.50
2019-05-05T17:04:43.429Z,13.30
2019-05-05T17:07:29.543Z,13.00
2019-05-05T17:10:16.358Z,12.70
2019-05-05T17:13:11.305Z,12.40
2019-05-05T17:16:14.704Z,12.10
2019-05-05T17:19:20.071Z,11.80
2019-05-05T17:22:09.856Z,11.60
2019-05-05T17:24:56.756Z,11.30
2019-05-05T17:27:48.716Z,11.10
2019-05-05T17:30:30.926Z,10.90
2019-05-05T17:33:17.171Z,10.70
2019-05-05T17:36:04.637Z,10.60
2019-05-05T17:38:50.944Z,10.50
2019-05-05T17:41:55.098Z,10.30
2019-05-05T17:44:54.240Z,10.10
2019-05-05T17:47:59.975Z,10.00
2019-05-05T17:51:23.944Z,9.80
2019-05-05T17:54:24.470Z,9.70
2019-05-05T17:57:10.871Z,9.50
2019-05-05T17:59:57.014Z,9.30
2019-05-05T18:02:43.785Z,9.10
2019-05-05T18:05:48.076Z,8.90
2019-05-05T18:08:36.532Z,8.90
2019-05-05T18:11:27.983Z,8.70
2019-05-05T18:14:21.328Z,8.60
2019-05-05T18:17:07.642Z,8.50
2019-05-05T18:19:54.079Z,8.40
2019-05-05T18:22:40.435Z,8.20
2019-05-05T18:25:26.810Z,8.20
2019-05-05T18:28:19.411Z,8.10
2019-05-05T18:31:01.450Z,8.10
2019-05-05T18:33:47.958Z,8.00
2019-05-05T18:36:34.380Z,7.90
2019-05-05T18:39:20.627Z,7.80
2019-05-05T18:42:13.833Z,7.80
2019-05-05T18:45:03.842Z,7.70
2019-05-05T18:47:50.156Z,7.60
2019-05-05T18:50:36.536Z,7.50
2019-05-05T18:53:22.981Z,7.50
2019-05-05T18:56:09.416Z,7.40
2019-05-05T18:59:04.516Z,7.30
2019-05-05T19:01:56.928Z,7.30
2019-05-05T19:05:05.495Z,7.20
2019-05-05T19:07:58.103Z,7.10
2019-05-05T19:10:44.168Z,7.00
2019-05-05T19:13:30.466Z,7.00
2019-05-05T19:16:16.670Z,6.90
2019-05-05T19:19:03.646Z,6.80
2019-05-05T19:21:54.721Z,6.80
2019-05-05T19:24:40.902Z,6.70
2019-05-05T19:27:27.306Z,6.70
2019-05-05T19:30:15.326Z,6.70
2019-05-05T19:33:01.788Z,6.60
2019-05-05T19:35:47.975Z,6.60
2019-05-05T19:38:39.656Z,6.60
2019-05-05T19:41:25.884Z,6.60
2019-05-05T19:44:15.262Z,6.70
2019-05-05T19:47:21.400Z,6.70
2019-05-05T19:50:19.727Z,6.70
2019-05-05T19:53:21.399Z,6.70
2019-05-05T19:56:07.279Z,6.70
2019-05-05T19:58:59.257Z,6.70
2019-05-05T20:01:44.700Z,6.60
2019-05-05T20:04:30.040Z,6.60
2019-05-05T20:07:15.979Z,6.60
2019-05-05T20:10:04.027Z,6.50
2019-05-05T20:12:50.280Z,6.50
2019-05-05T20:15:44.259Z,6.50
2019-05-05T20:18:30.635Z,6.40
2019-05-05T20:21:16.617Z,6.40
2019-05-05T20:24:03.767Z,6.40
2019-05-05T20:26:50.171Z,6.30
2019-05-05T20:29:37.584Z,6.20
2019-05-05T20:32:30.677Z,6.20
2019-05-05T20:35:24.019Z,6.20
2019-05-05T20:38:14.262Z,6.10
2019-05-05T20:41:17.133Z,6.10
2019-05-05T20:44:03.183Z,6.00
2019-05-05T20:46:49.637Z,6.00
2019-05-05T20:49:35.935Z,5.90
2019-05-05T20:52:23.704Z,5.80
2019-05-05T20:55:10.128Z,5.80
2019-05-05T20:57:56.404Z,5.80
2019-05-05T21:00:44.250Z,5.70
2019-05-05T21:03:30.368Z,5.70
2019-05-05T21:06:16.602Z,5.70
2019-05-05T21:09:04.348Z,5.80
2019-05-05T21:11:50.328Z,5.80
2019-05-05T21:14:38.170Z,5.80
2019-05-05T21:17:24.651Z,5.80
2019-05-05T21:20:10.809Z,5.90
2019-05-05T21:23:05.194Z,5.90
2019-05-05T21:25:55.019Z,6.00
2019-05-05T21:28:41.296Z,6.00
2019-05-05T21:31:27.676Z,6.00
2019-05-05T21:34:14.091Z,6.00
2019-05-05T21:37:00.548Z,6.00
2019-05-05T21:39:46.847Z,6.00
2019-05-05T21:42:34.869Z,6.00
2019-05-05T21:45:20.783Z,6.00
2019-05-05T21:48:06.615Z,6.00
2019-05-05T21:50:59.655Z,6.00
2019-05-05T21:53:51.083Z,6.00
2019-05-05T21:56:43.806Z,6.00
2019-05-05T21:59:29.972Z,6.00
2019-05-05T22:02:16.328Z,6.00
2019-05-05T22:05:03.992Z,5.90
2019-05-05T22:07:50.320Z,5.90
2019-05-05T22:10:36.996Z,5.80
2019-05-05T22:13:23.079Z,5.80
2019-05-05T22:16:09.499Z,5.80
2019-05-05T22:18:55.827Z,5.80
2019-05-05T22:21:46.143Z,5.80
2019-05-05T22:24:33.402Z,5.70
2019-05-05T22:27:20.364Z,5.70
2019-05-05T22:30:10.026Z,5.60
2019-05-05T22:32:54.564Z,5.60
2019-05-05T22:35:40.586Z,5.60
2019-05-05T22:38:26.787Z,5.50
2019-05-05T22:41:13.296Z,5.50
2019-05-05T22:44:00.772Z,5.50
2019-05-05T22:46:47.017Z,5.40
2019-05-05T22:49:33.383Z,5.30
2019-05-05T22:52:19.732Z,5.20
2019-05-05T22:55:05.688Z,5.10
2019-05-05T22:57:53.902Z,5.00
2019-05-05T23:00:39.911Z,4.90
2019-05-05T23:03:32.578Z,4.80
2019-05-05T23:06:21.274Z,4.80
2019-05-05T23:09:11.695Z,4.70
2019-05-05T23:11:57.552Z,4.70
2019-05-05T23:14:43.991Z,4.70
2019-05-05T23:17:55.782Z,4.70
2019-05-05T23:21:08.751Z,4.80
2019-05-05T23:24:20.451Z,4.90
2019-05-05T23:27:06.764Z,4.90
2019-05-05T23:29:54.594Z,4.90
2019-05-05T23:32:41.022Z,5.00
2019-05-05T23:35:27.376Z,5.00
2019-05-05T23:38:14.350Z,5.10
2019-05-05T23:41:01.179Z,5.10
2019-05-05T23:43:47.445Z,5.20
2019-05-05T23:46:34.853Z,5.20
2019-05-05T23:49:21.339Z,5.20
2019-05-05T23:52:07.080Z,5.20
2019-05-05T23:54:52.881Z,5.20
2019-05-05T23:57:39.624Z,5.20
